sensor_id;sensor_type;location;lat;lon;timestamp;pressure;altitude;pressure_sealevel;temperature;humidity
68889;BME280;55930;47.412;8.790;2023-09-12T00:03:12;94537.22;;;17.09;100.00
68889;BME280;55930;47.412;8.790;2023-09-12T00:06:33;94535.88;;;16.97;100.00
68889;BME280;55930;47.412;8.790;2023-09-12T00:09:53;94549.03;;;16.95;100.00
68889;BME280;55930;47.412;8.790;2023-09-12T00:13:13;94539.22;;;17.03;100.00
68889;BME280;55930;47.412;8.790;2023-09-12T00:16:34;94547.19;;;17.14;100.00
68889;BME280;55930;47.412;8.790;2023-09-12T00:19:54;94551.16;;;17.08;100.00
68889;BME280;55930;47.412;8.790;2023-09-12T00:23:14;94541.41;;;17.05;100.00
68889;BME280;55930;47.412;8.790;2023-09-12T00:26:35;94545.38;;;16.98;100.00
68889;BME280;55930;47.412;8.790;2023-09-12T00:29:55;94543.06;;;16.83;100.00
68889;BME280;55930;47.412;8.790;2023-09-12T00:33:18;94531.31;;;16.87;100.00
68889;BME280;55930;47.412;8.790;2023-09-12T00:36:38;94537.34;;;16.98;100.00
68889;BME280;55930;47.412;8.790;2023-09-12T00:39:59;94543.13;;;17.02;100.00
68889;BME280;55930;47.412;8.790;2023-09-12T00:43:21;94541.72;;;16.96;100.00
68889;BME280;55930;47.412;8.790;2023-09-12T00:46:43;94536.75;;;16.81;100.00
68889;BME280;55930;47.412;8.790;2023-09-12T00:50:05;94531.63;;;16.77;100.00
68889;BME280;55930;47.412;8.790;2023-09-12T00:53:26;94536.56;;;16.73;100.00
68889;BME280;55930;47.412;8.790;2023-09-12T00:56:46;94541.81;;;16.84;100.00
68889;BME280;55930;47.412;8.790;2023-09-12T01:00:11;94534.59;;;16.74;100.00
68889;BME280;55930;47.412;8.790;2023-09-12T01:03:32;94539.72;;;16.72;100.00
68889;BME280;55930;47.412;8.790;2023-09-12T01:06:54;94534.09;;;16.75;100.00
68889;BME280;55930;47.412;8.790;2023-09-12T01:10:18;94543.38;;;16.69;100.00
68889;BME280;55930;47.412;8.790;2023-09-12T01:13:41;94538.56;;;16.62;100.00
68889;BME280;55930;47.412;8.790;2023-09-12T01:17:02;94541.22;;;16.67;100.00
68889;BME280;55930;47.412;8.790;2023-09-12T01:20:24;94548.09;;;16.57;100.00
68889;BME280;55930;47.412;8.790;2023-09-12T01:30:42;94552.44;;;16.66;100.00
68889;BME280;55930;47.412;8.790;2023-09-12T01:34:10;94550.22;;;16.70;100.00
68889;BME280;55930;47.412;8.790;2023-09-12T01:37:31;94548.97;;;16.71;100.00
68889;BME280;55930;47.412;8.790;2023-09-12T01:40:51;94564.31;;;16.70;100.00
68889;BME280;55930;47.412;8.790;2023-09-12T01:44:14;94561.94;;;16.61;100.00
68889;BME280;55930;47.412;8.790;2023-09-12T01:47:38;94559.50;;;16.63;100.00
68889;BME280;55930;47.412;8.790;2023-09-12T01:51:04;94554.41;;;16.60;100.00
68889;BME280;55930;47.412;8.790;2023-09-12T01:54:26;94551.72;;;16.65;100.00
68889;BME280;55930;47.412;8.790;2023-09-12T01:57:46;94559.03;;;16.65;100.00
68889;BME280;55930;47.412;8.790;2023-09-12T02:01:07;94563.06;;;16.77;100.00
68889;BME280;55930;47.412;8.790;2023-09-12T02:04:30;94561.09;;;16.83;100.00
68889;BME280;55930;47.412;8.790;2023-09-12T02:07:50;94568.66;;;16.79;100.00
68889;BME280;55930;47.412;8.790;2023-09-12T02:11:11;94565.78;;;16.71;100.00
68889;BME280;55930;47.412;8.790;2023-09-12T02:14:31;94579.22;;;16.60;100.00
68889;BME280;55930;47.412;8.790;2023-09-12T02:17:51;94577.34;;;16.50;100.00
68889;BME280;55930;47.412;8.790;2023-09-12T02:21:12;94576.66;;;16.43;100.00
68889;BME280;55930;47.412;8.790;2023-09-12T02:24:34;94574.25;;;16.40;100.00
68889;BME280;55930;47.412;8.790;2023-09-12T02:27:54;94586.22;;;16.33;100.00
68889;BME280;55930;47.412;8.790;2023-09-12T02:31:14;94578.94;;;16.23;100.00
68889;BME280;55930;47.412;8.790;2023-09-12T02:34:35;94584.28;;;16.28;100.00
68889;BME280;55930;47.412;8.790;2023-09-12T02:37:55;94572.09;;;16.33;100.00
68889;BME280;55930;47.412;8.790;2023-09-12T02:41:15;94573.28;;;16.37;100.00
68889;BME280;55930;47.412;8.790;2023-09-12T02:44:36;94570.16;;;16.33;100.00
68889;BME280;55930;47.412;8.790;2023-09-12T02:47:56;94567.75;;;16.24;100.00
68889;BME280;55930;47.412;8.790;2023-09-12T02:51:19;94566.78;;;16.27;100.00
68889;BME280;55930;47.412;8.790;2023-09-12T02:54:39;94562.16;;;16.28;100.00
68889;BME280;55930;47.412;8.790;2023-09-12T02:58:00;94563.13;;;16.25;100.00
68889;BME280;55930;47.412;8.790;2023-09-12T03:01:20;94560.25;;;16.17;100.00
68889;BME280;55930;47.412;8.790;2023-09-12T03:04:41;94561.94;;;16.20;100.00
68889;BME280;55930;47.412;8.790;2023-09-12T03:08:01;94564.03;;;16.38;100.00
68889;BME280;55930;47.412;8.790;2023-09-12T03:11:26;94564.28;;;16.35;100.00
68889;BME280;55930;47.412;8.790;2023-09-12T03:14:49;94552.84;;;16.34;100.00
68889;BME280;55930;47.412;8.790;2023-09-12T03:18:10;94557.41;;;16.45;100.00
68889;BME280;55930;47.412;8.790;2023-09-12T03:21:31;94564.03;;;16.38;100.00
68889;BME280;55930;47.412;8.790;2023-09-12T03:24:51;94556.03;;;16.33;100.00
68889;BME280;55930;47.412;8.790;2023-09-12T03:28:12;94564.22;;;16.46;100.00
68889;BME280;55930;47.412;8.790;2023-09-12T03:31:32;94560.84;;;16.40;100.00
68889;BME280;55930;47.412;8.790;2023-09-12T03:34:52;94558.44;;;16.36;100.00
68889;BME280;55930;47.412;8.790;2023-09-12T03:38:13;94559.88;;;16.37;100.00
68889;BME280;55930;47.412;8.790;2023-09-12T03:41:33;94544.06;;;16.39;100.00
68889;BME280;55930;47.412;8.790;2023-09-12T03:44:56;94549.72;;;16.30;100.00
68889;BME280;55930;47.412;8.790;2023-09-12T03:48:17;94537.81;;;16.26;100.00
68889;BME280;55930;47.412;8.790;2023-09-12T03:51:37;94536.66;;;16.16;100.00
68889;BME280;55930;47.412;8.790;2023-09-12T03:54:58;94545.16;;;16.20;100.00
68889;BME280;55930;47.412;8.790;2023-09-12T03:58:21;94540.06;;;16.16;100.00
68889;BME280;55930;47.412;8.790;2023-09-12T04:01:41;94539.03;;;16.25;100.00
68889;BME280;55930;47.412;8.790;2023-09-12T04:05:02;94531.78;;;16.14;100.00
68889;BME280;55930;47.412;8.790;2023-09-12T04:08:22;94533.72;;;16.14;100.00
68889;BME280;55930;47.412;8.790;2023-09-12T04:11:43;94536.66;;;16.16;100.00
68889;BME280;55930;47.412;8.790;2023-09-12T04:15:03;94538.84;;;16.17;100.00
68889;BME280;55930;47.412;8.790;2023-09-12T04:18:24;94545.91;;;16.15;100.00
68889;BME280;55930;47.412;8.790;2023-09-12T04:21:44;94545.88;;;16.20;100.00
68889;BME280;55930;47.412;8.790;2023-09-12T04:25:05;94543.22;;;16.20;100.00
68889;BME280;55930;47.412;8.790;2023-09-12T04:28:25;94538.84;;;16.17;100.00
68889;BME280;55930;47.412;8.790;2023-09-12T04:31:49;94544.44;;;16.14;100.00
68889;BME280;55930;47.412;8.790;2023-09-12T04:35:10;94542.28;;;16.06;100.00
68889;BME280;55930;47.412;8.790;2023-09-12T04:38:31;94534.75;;;16.05;100.00
68889;BME280;55930;47.412;8.790;2023-09-12T04:41:53;94534.53;;;15.97;100.00
68889;BME280;55930;47.412;8.790;2023-09-12T04:45:13;94541.16;;;15.91;100.00
68889;BME280;55930;47.412;8.790;2023-09-12T04:48:33;94536.53;;;15.91;100.00
68889;BME280;55930;47.412;8.790;2023-09-12T04:51:54;94537.22;;;15.97;100.00
68889;BME280;55930;47.412;8.790;2023-09-12T04:55:14;94536.19;;;16.12;100.00
68889;BME280;55930;47.412;8.790;2023-09-12T04:58:37;94541.56;;;16.06;100.00
68889;BME280;55930;47.412;8.790;2023-09-12T05:01:57;94543.72;;;16.13;100.00
68889;BME280;55930;47.412;8.790;2023-09-12T05:05:17;94545.97;;;16.03;100.00
68889;BME280;55930;47.412;8.790;2023-09-12T05:08:38;94541.03;;;16.13;100.00
68889;BME280;55930;47.412;8.790;2023-09-12T05:11:58;94546.59;;;16.21;100.00
68889;BME280;55930;47.412;8.790;2023-09-12T05:15:18;94549.75;;;16.25;100.00
68889;BME280;55930;47.412;8.790;2023-09-12T05:18:41;94543.41;;;16.28;100.00
68889;BME280;55930;47.412;8.790;2023-09-12T05:22:01;94536.31;;;16.30;100.00
68889;BME280;55930;47.412;8.790;2023-09-12T05:25:22;94542.00;;;16.57;100.00
68889;BME280;55930;47.412;8.790;2023-09-12T05:28:43;94552.63;;;16.73;100.00
68889;BME280;55930;47.412;8.790;2023-09-12T05:32:04;94553.81;;;16.78;100.00
68889;BME280;55930;47.412;8.790;2023-09-12T05:35:24;94551.31;;;16.86;100.00
68889;BME280;55930;47.412;8.790;2023-09-12T05:38:45;94529.56;;;16.95;100.00
68889;BME280;55930;47.412;8.790;2023-09-12T05:42:05;94527.38;;;16.93;100.00
68889;BME280;55930;47.412;8.790;2023-09-12T05:45:25;94529.31;;;17.23;100.00
68889;BME280;55930;47.412;8.790;2023-09-12T05:48:49;94520.09;;;17.42;100.00
68889;BME280;55930;47.412;8.790;2023-09-12T05:52:12;94520.69;;;17.54;100.00
68889;BME280;55930;47.412;8.790;2023-09-12T05:55:32;94517.91;;;17.41;100.00
68889;BME280;55930;47.412;8.790;2023-09-12T05:58:58;94510.25;;;17.75;100.00
68889;BME280;55930;47.412;8.790;2023-09-12T06:02:18;94512.72;;;17.91;100.00
68889;BME280;55930;47.412;8.790;2023-09-12T06:05:39;94503.84;;;17.96;100.00
68889;BME280;55930;47.412;8.790;2023-09-12T06:08:59;94505.25;;;18.03;100.00
68889;BME280;55930;47.412;8.790;2023-09-12T06:12:19;94510.25;;;18.31;100.00
68889;BME280;55930;47.412;8.790;2023-09-12T06:15:43;94507.47;;;18.36;100.00
68889;BME280;55930;47.412;8.790;2023-09-12T06:19:03;94498.50;;;18.98;100.00
68889;BME280;55930;47.412;8.790;2023-09-12T06:22:23;94492.50;;;19.84;100.00
68889;BME280;55930;47.412;8.790;2023-09-12T06:25:44;94473.41;;;20.84;100.00
68889;BME280;55930;47.412;8.790;2023-09-12T06:29:05;94430.13;;;21.97;100.00
68889;BME280;55930;47.412;8.790;2023-09-12T06:32:25;94412.38;;;22.70;100.00
68889;BME280;55930;47.412;8.790;2023-09-12T06:35:49;94426.72;;;20.68;100.00
68889;BME280;55930;47.412;8.790;2023-09-12T06:39:10;94423.31;;;22.04;100.00
68889;BME280;55930;47.412;8.790;2023-09-12T06:42:30;94411.75;;;23.88;92.01
68889;BME280;55930;47.412;8.790;2023-09-12T06:45:53;94406.31;;;23.48;90.97
68889;BME280;55930;47.412;8.790;2023-09-12T06:49:13;94419.34;;;21.18;100.00
68889;BME280;55930;47.412;8.790;2023-09-12T06:52:34;94428.41;;;22.38;100.00
68889;BME280;55930;47.412;8.790;2023-09-12T06:55:54;94407.75;;;24.29;94.07
68889;BME280;55930;47.412;8.790;2023-09-12T06:59:17;94405.72;;;24.04;95.13
68889;BME280;55930;47.412;8.790;2023-09-12T07:02:40;94398.84;;;24.03;90.44
68889;BME280;55930;47.412;8.790;2023-09-12T07:06:02;94405.03;;;24.29;91.03
68889;BME280;55930;47.412;8.790;2023-09-12T07:09:23;94402.28;;;24.61;85.22
68889;BME280;55930;47.412;8.790;2023-09-12T07:12:43;94403.72;;;25.39;85.44
68889;BME280;55930;47.412;8.790;2023-09-12T07:16:04;94381.75;;;26.33;82.06
68889;BME280;55930;47.412;8.790;2023-09-12T07:19:25;94397.16;;;26.03;76.22
68889;BME280;55930;47.412;8.790;2023-09-12T07:22:46;94395.72;;;27.79;73.60
68889;BME280;55930;47.412;8.790;2023-09-12T07:26:12;94391.72;;;28.30;67.57
68889;BME280;55930;47.412;8.790;2023-09-12T07:29:33;94399.94;;;28.92;65.04
68889;BME280;55930;47.412;8.790;2023-09-12T07:32:53;94398.03;;;27.73;70.15
68889;BME280;55930;47.412;8.790;2023-09-12T07:36:16;94400.44;;;27.88;71.04
68889;BME280;55930;47.412;8.790;2023-09-12T07:39:39;94408.16;;;29.13;66.53
68889;BME280;55930;47.412;8.790;2023-09-12T07:43:02;94396.53;;;31.28;56.95
68889;BME280;55930;47.412;8.790;2023-09-12T07:46:22;94397.66;;;30.76;57.35
68889;BME280;55930;47.412;8.790;2023-09-12T07:49:43;94413.66;;;29.67;58.76
68889;BME280;55930;47.412;8.790;2023-09-12T07:53:06;94415.66;;;30.56;55.28
68889;BME280;55930;47.412;8.790;2023-09-12T07:56:27;94420.47;;;31.76;52.53
68889;BME280;55930;47.412;8.790;2023-09-12T07:59:47;94428.88;;;30.60;53.65
68889;BME280;55930;47.412;8.790;2023-09-12T08:03:08;94424.03;;;29.81;52.03
68889;BME280;55930;47.412;8.790;2023-09-12T08:06:28;94425.72;;;31.72;50.04
68889;BME280;55930;47.412;8.790;2023-09-12T08:09:51;94414.38;;;30.13;52.08
68889;BME280;55930;47.412;8.790;2023-09-12T08:13:12;94414.31;;;29.14;54.56
68889;BME280;55930;47.412;8.790;2023-09-12T08:16:32;94408.84;;;28.62;56.24
68889;BME280;55930;47.412;8.790;2023-09-12T08:19:52;94416.91;;;30.09;54.59
68889;BME280;55930;47.412;8.790;2023-09-12T08:23:13;94417.16;;;31.54;50.66
68889;BME280;55930;47.412;8.790;2023-09-12T08:26:33;94421.13;;;33.21;46.52
68889;BME280;55930;47.412;8.790;2023-09-12T08:29:56;94420.28;;;33.46;41.86
68889;BME280;55930;47.412;8.790;2023-09-12T08:33:16;94418.09;;;35.27;39.75
68889;BME280;55930;47.412;8.790;2023-09-12T08:36:37;94419.22;;;33.96;40.94
68889;BME280;55930;47.412;8.790;2023-09-12T08:39:57;94410.47;;;32.73;41.87
68889;BME280;55930;47.412;8.790;2023-09-12T08:43:20;94410.16;;;34.39;39.35
68889;BME280;55930;47.412;8.790;2023-09-12T08:46:42;94403.28;;;34.71;38.13
68889;BME280;55930;47.412;8.790;2023-09-12T08:50:03;94402.16;;;34.29;37.28
68889;BME280;55930;47.412;8.790;2023-09-12T08:53:24;94392.94;;;34.09;36.60
68889;BME280;55930;47.412;8.790;2023-09-12T08:56:45;94396.91;;;35.16;35.68
68889;BME280;55930;47.412;8.790;2023-09-12T09:00:06;94395.88;;;35.58;34.20
68889;BME280;55930;47.412;8.790;2023-09-12T09:03:29;94392.78;;;34.68;35.05
68889;BME280;55930;47.412;8.790;2023-09-12T09:06:52;94395.75;;;34.87;34.38
68889;BME280;55930;47.412;8.790;2023-09-12T09:10:16;94392.19;;;31.99;39.38
68889;BME280;55930;47.412;8.790;2023-09-12T09:13:37;94390.03;;;32.23;41.02
68889;BME280;55930;47.412;8.790;2023-09-12T09:16:58;94383.78;;;32.75;39.99
68889;BME280;55930;47.412;8.790;2023-09-12T09:20:23;94375.00;;;32.65;38.83
68889;BME280;55930;47.412;8.790;2023-09-12T09:23:46;94377.84;;;35.22;34.27
68889;BME280;55930;47.412;8.790;2023-09-12T09:27:07;94381.94;;;34.87;33.98
68889;BME280;55930;47.412;8.790;2023-09-12T09:30:44;94388.09;;;35.19;34.41
68889;BME280;55930;47.412;8.790;2023-09-12T09:34:19;94386.31;;;37.75;33.38
68889;BME280;55930;47.412;8.790;2023-09-12T09:37:40;94377.13;;;38.16;30.52
68889;BME280;55930;47.412;8.790;2023-09-12T09:41:04;94380.06;;;38.46;29.97
68889;BME280;55930;47.412;8.790;2023-09-12T09:44:26;94365.81;;;38.55;31.86
68889;BME280;55930;47.412;8.790;2023-09-12T09:47:49;94364.34;;;36.96;33.32
68889;BME280;55930;47.412;8.790;2023-09-12T09:51:13;94361.09;;;37.23;32.20
68889;BME280;55930;47.412;8.790;2023-09-12T09:54:33;94369.88;;;34.79;36.13
68889;BME280;55930;47.412;8.790;2023-09-12T09:57:56;94372.91;;;33.77;35.71
68889;BME280;55930;47.412;8.790;2023-09-12T10:01:27;94361.50;;;37.57;31.65
68889;BME280;55930;47.412;8.790;2023-09-12T10:04:48;94368.91;;;38.93;28.28
68889;BME280;55930;47.412;8.790;2023-09-12T10:08:12;94354.00;;;37.60;29.33
68889;BME280;55930;47.412;8.790;2023-09-12T10:11:38;94364.13;;;34.90;32.92
68889;BME280;55930;47.412;8.790;2023-09-12T10:15:00;94360.78;;;32.96;35.50
68889;BME280;55930;47.412;8.790;2023-09-12T10:18:22;94363.25;;;35.19;34.42
68889;BME280;55930;47.412;8.790;2023-09-12T10:22:11;94354.34;;;36.67;30.49
68889;BME280;55930;47.412;8.790;2023-09-12T10:25:33;94347.44;;;38.68;31.56
68889;BME280;55930;47.412;8.790;2023-09-12T10:28:55;94352.34;;;34.88;35.02
68889;BME280;55930;47.412;8.790;2023-09-12T10:32:18;94342.72;;;38.49;32.13
68889;BME280;55930;47.412;8.790;2023-09-12T10:35:40;94337.88;;;35.94;33.28
68889;BME280;55930;47.412;8.790;2023-09-12T10:39:03;94338.78;;;34.94;33.12
68889;BME280;55930;47.412;8.790;2023-09-12T10:42:26;94341.31;;;35.75;33.89
68889;BME280;55930;47.412;8.790;2023-09-12T10:45:50;94342.88;;;34.28;35.12
68889;BME280;55930;47.412;8.790;2023-09-12T10:49:13;94339.59;;;34.32;36.77
68889;BME280;55930;47.412;8.790;2023-09-12T10:52:34;94335.75;;;35.21;36.46
68889;BME280;55930;47.412;8.790;2023-09-12T10:56:01;94331.38;;;34.99;34.72
68889;BME280;55930;47.412;8.790;2023-09-12T10:59:21;94321.97;;;39.03;30.36
68889;BME280;55930;47.412;8.790;2023-09-12T11:02:45;94317.81;;;38.01;32.22
68889;BME280;55930;47.412;8.790;2023-09-12T11:06:19;94306.31;;;40.06;30.47
68889;BME280;55930;47.412;8.790;2023-09-12T11:09:41;94304.59;;;41.41;26.49
68889;BME280;55930;47.412;8.790;2023-09-12T11:13:04;94303.19;;;40.60;26.79
68889;BME280;55930;47.412;8.790;2023-09-12T11:16:24;94300.25;;;39.82;27.71
68889;BME280;55930;47.412;8.790;2023-09-12T11:19:47;94288.06;;;40.69;26.34
68889;BME280;55930;47.412;8.790;2023-09-12T11:23:12;94285.00;;;40.19;27.11
68889;BME280;55930;47.412;8.790;2023-09-12T11:26:32;94291.44;;;42.56;25.79
68889;BME280;55930;47.412;8.790;2023-09-12T11:29:52;94289.66;;;42.20;24.99
68889;BME280;55930;47.412;8.790;2023-09-12T11:33:13;94293.75;;;43.56;25.87
68889;BME280;55930;47.412;8.790;2023-09-12T11:36:40;94285.09;;;42.45;24.08
68889;BME280;55930;47.412;8.790;2023-09-12T11:43:37;94270.00;;;41.10;25.81
68889;BME280;55930;47.412;8.790;2023-09-12T11:47:01;94268.19;;;40.48;26.55
68889;BME280;55930;47.412;8.790;2023-09-12T11:53:49;94266.78;;;40.85;25.51
68889;BME280;55930;47.412;8.790;2023-09-12T11:57:12;94266.34;;;40.61;25.82
68889;BME280;55930;47.412;8.790;2023-09-12T12:00:34;94268.47;;;41.03;25.71
68889;BME280;55930;47.412;8.790;2023-09-12T12:03:54;94263.63;;;40.65;25.89
68889;BME280;55930;47.412;8.790;2023-09-12T12:07:16;94268.56;;;41.53;26.18
68889;BME280;55930;47.412;8.790;2023-09-12T12:10:37;94264.91;;;40.22;27.09
68889;BME280;55930;47.412;8.790;2023-09-12T12:14:15;94266.56;;;38.52;28.79
68889;BME280;55930;47.412;8.790;2023-09-12T12:17:36;94266.50;;;38.00;30.36
68889;BME280;55930;47.412;8.790;2023-09-12T12:20:57;94263.47;;;37.90;29.90
68889;BME280;55930;47.412;8.790;2023-09-12T12:24:17;94258.06;;;39.29;28.03
68889;BME280;55930;47.412;8.790;2023-09-12T12:27:38;94243.34;;;41.43;26.01
68889;BME280;55930;47.412;8.790;2023-09-12T12:31:02;94245.66;;;41.10;26.46
68889;BME280;55930;47.412;8.790;2023-09-12T12:34:22;94246.41;;;35.66;32.89
68889;BME280;55930;47.412;8.790;2023-09-12T12:37:43;94241.03;;;40.85;26.93
68889;BME280;55930;47.412;8.790;2023-09-12T12:41:07;94241.13;;;41.87;24.92
68889;BME280;55930;47.412;8.790;2023-09-12T12:44:33;94231.63;;;39.26;27.72
68889;BME280;55930;47.412;8.790;2023-09-12T12:48:01;94230.81;;;40.58;26.11
68889;BME280;55930;47.412;8.790;2023-09-12T12:51:23;94239.00;;;37.59;29.88
68889;BME280;55930;47.412;8.790;2023-09-12T12:54:44;94244.25;;;33.77;35.82
68889;BME280;55930;47.412;8.790;2023-09-12T12:58:07;94243.34;;;32.14;38.86
68889;BME280;55930;47.412;8.790;2023-09-12T13:01:27;94253.03;;;32.29;41.20
68889;BME280;55930;47.412;8.790;2023-09-12T13:04:48;94244.56;;;32.11;40.56
68889;BME280;55930;47.412;8.790;2023-09-12T13:08:08;94235.63;;;31.83;43.74
68889;BME280;55930;47.412;8.790;2023-09-12T13:11:28;94240.22;;;32.34;40.27
68889;BME280;55930;47.412;8.790;2023-09-12T13:14:51;94245.63;;;31.26;45.44
68889;BME280;55930;47.412;8.790;2023-09-12T13:18:11;94250.06;;;30.11;44.88
68889;BME280;55930;47.412;8.790;2023-09-12T13:21:32;94263.81;;;29.78;48.24
68889;BME280;55930;47.412;8.790;2023-09-12T13:24:53;94268.88;;;28.82;55.76
68889;BME280;55930;47.412;8.790;2023-09-12T13:28:13;94276.16;;;28.47;56.17
68889;BME280;55930;47.412;8.790;2023-09-12T13:31:36;94287.78;;;27.86;60.79
68889;BME280;55930;47.412;8.790;2023-09-12T13:34:56;94293.78;;;27.15;64.43
68889;BME280;55930;47.412;8.790;2023-09-12T13:38:18;94300.38;;;27.02;67.25
68889;BME280;55930;47.412;8.790;2023-09-12T13:41:39;94316.94;;;26.67;67.84
68889;BME280;55930;47.412;8.790;2023-09-12T13:45:00;94325.47;;;27.00;62.00
68889;BME280;55930;47.412;8.790;2023-09-12T13:48:20;94332.16;;;26.80;64.80
68889;BME280;55930;47.412;8.790;2023-09-12T13:51:41;94346.16;;;26.57;65.85
68889;BME280;55930;47.412;8.790;2023-09-12T13:55:01;94349.22;;;26.35;70.39
68889;BME280;55930;47.412;8.790;2023-09-12T13:58:23;94356.59;;;25.88;68.88
68889;BME280;55930;47.412;8.790;2023-09-12T14:01:44;94360.75;;;25.89;67.40
68889;BME280;55930;47.412;8.790;2023-09-12T14:05:04;94369.69;;;25.72;67.22
68889;BME280;55930;47.412;8.790;2023-09-12T14:08:27;94383.94;;;25.46;64.03
68889;BME280;55930;47.412;8.790;2023-09-12T14:11:47;94379.63;;;25.26;58.12
68889;BME280;55930;47.412;8.790;2023-09-12T14:15:11;94370.72;;;24.73;54.58
68889;BME280;55930;47.412;8.790;2023-09-12T14:18:32;94381.72;;;24.75;52.01
68889;BME280;55930;47.412;8.790;2023-09-12T14:21:52;94367.50;;;25.09;51.51
68889;BME280;55930;47.412;8.790;2023-09-12T14:25:13;94360.94;;;24.95;49.73
68889;BME280;55930;47.412;8.790;2023-09-12T14:28:34;94352.81;;;24.95;49.57
68889;BME280;55930;47.412;8.790;2023-09-12T14:31:55;94335.91;;;24.79;48.27
68889;BME280;55930;47.412;8.790;2023-09-12T14:35:20;94343.53;;;25.77;48.17
68889;BME280;55930;47.412;8.790;2023-09-12T14:38:40;94329.75;;;25.48;47.99
68889;BME280;55930;47.412;8.790;2023-09-12T14:42:01;94335.75;;;25.90;47.68
68889;BME280;55930;47.412;8.790;2023-09-12T14:45:27;94328.50;;;25.76;49.00
68889;BME280;55930;47.412;8.790;2023-09-12T14:48:48;94327.53;;;25.81;47.95
68889;BME280;55930;47.412;8.790;2023-09-12T14:52:08;94314.25;;;25.41;48.53
68889;BME280;55930;47.412;8.790;2023-09-12T14:55:29;94316.59;;;25.71;49.67
68889;BME280;55930;47.412;8.790;2023-09-12T14:58:49;94319.38;;;25.81;50.18
68889;BME280;55930;47.412;8.790;2023-09-12T15:02:15;94321.94;;;25.79;54.74
68889;BME280;55930;47.412;8.790;2023-09-12T15:05:35;94308.56;;;25.46;52.39
68889;BME280;55930;47.412;8.790;2023-09-12T15:08:56;94305.91;;;25.56;50.70
68889;BME280;55930;47.412;8.790;2023-09-12T15:12:16;94295.78;;;26.85;48.90
68889;BME280;55930;47.412;8.790;2023-09-12T15:15:39;94289.78;;;26.21;49.49
68889;BME280;55930;47.412;8.790;2023-09-12T15:19:00;94287.56;;;26.01;50.92
68889;BME280;55930;47.412;8.790;2023-09-12T15:22:23;94285.19;;;27.28;47.03
68889;BME280;55930;47.412;8.790;2023-09-12T15:25:44;94274.69;;;27.43;45.56
68889;BME280;55930;47.412;8.790;2023-09-12T15:29:04;94284.56;;;26.62;46.52
68889;BME280;55930;47.412;8.790;2023-09-12T15:32:25;94287.34;;;27.20;47.51
68889;BME280;55930;47.412;8.790;2023-09-12T15:35:45;94303.78;;;26.83;46.79
68889;BME280;55930;47.412;8.790;2023-09-12T15:39:05;94289.34;;;26.81;49.52
68889;BME280;55930;47.412;8.790;2023-09-12T15:42:26;94293.19;;;26.68;49.24
68889;BME280;55930;47.412;8.790;2023-09-12T15:45:46;94298.97;;;25.89;50.56
68889;BME280;55930;47.412;8.790;2023-09-12T15:49:09;94294.50;;;26.21;50.12
68889;BME280;55930;47.412;8.790;2023-09-12T15:52:29;94293.97;;;25.96;50.18
68889;BME280;55930;47.412;8.790;2023-09-12T15:55:49;94293.78;;;25.57;53.89
68889;BME280;55930;47.412;8.790;2023-09-12T15:59:10;94294.47;;;25.75;52.94
68889;BME280;55930;47.412;8.790;2023-09-12T16:02:33;94285.81;;;25.96;52.75
68889;BME280;55930;47.412;8.790;2023-09-12T16:05:53;94287.75;;;25.76;52.03
68889;BME280;55930;47.412;8.790;2023-09-12T16:09:14;94290.84;;;25.99;52.29
68889;BME280;55930;47.412;8.790;2023-09-12T16:12:34;94304.56;;;25.21;58.57
68889;BME280;55930;47.412;8.790;2023-09-12T16:15:55;94310.78;;;24.79;58.69
68889;BME280;55930;47.412;8.790;2023-09-12T16:19:15;94312.47;;;24.92;59.63
68889;BME280;55930;47.412;8.790;2023-09-12T16:22:38;94313.53;;;24.54;63.54
68889;BME280;55930;47.412;8.790;2023-09-12T16:25:59;94320.94;;;24.36;67.22
68889;BME280;55930;47.412;8.790;2023-09-12T16:29:20;94334.25;;;24.17;67.58
68889;BME280;55930;47.412;8.790;2023-09-12T16:32:40;94332.81;;;23.91;67.97
68889;BME280;55930;47.412;8.790;2023-09-12T16:36:01;94322.94;;;23.46;69.34
68889;BME280;55930;47.412;8.790;2023-09-12T16:39:24;94327.97;;;23.50;67.71
68889;BME280;55930;47.412;8.790;2023-09-12T16:42:44;94338.44;;;23.46;68.46
68889;BME280;55930;47.412;8.790;2023-09-12T16:46:04;94333.94;;;23.81;64.81
68889;BME280;55930;47.412;8.790;2023-09-12T16:49:25;94330.00;;;23.74;65.14
68889;BME280;55930;47.412;8.790;2023-09-12T16:52:45;94326.72;;;23.43;67.10
68889;BME280;55930;47.412;8.790;2023-09-12T16:56:06;94324.69;;;23.59;64.67
68889;BME280;55930;47.412;8.790;2023-09-12T16:59:26;94329.41;;;23.51;66.21
68889;BME280;55930;47.412;8.790;2023-09-12T17:02:46;94317.88;;;23.43;66.74
68889;BME280;55930;47.412;8.790;2023-09-12T17:06:07;94315.09;;;23.18;69.39
68889;BME280;55930;47.412;8.790;2023-09-12T17:09:27;94321.50;;;22.67;72.55
68889;BME280;55930;47.412;8.790;2023-09-12T17:12:50;94322.06;;;22.43;74.88
68889;BME280;55930;47.412;8.790;2023-09-12T17:16:10;94319.94;;;22.26;75.87
68889;BME280;55930;47.412;8.790;2023-09-12T17:19:31;94336.16;;;22.41;76.21
68889;BME280;55930;47.412;8.790;2023-09-12T17:22:51;94352.16;;;21.94;81.13
68889;BME280;55930;47.412;8.790;2023-09-12T17:26:12;94354.16;;;22.01;81.52
68889;BME280;55930;47.412;8.790;2023-09-12T17:29:32;94366.44;;;21.58;84.57
68889;BME280;55930;47.412;8.790;2023-09-12T17:32:53;94362.97;;;21.43;84.67
68889;BME280;55930;47.412;8.790;2023-09-12T17:36:13;94365.41;;;21.69;84.22
68889;BME280;55930;47.412;8.790;2023-09-12T17:39:33;94372.22;;;21.19;84.96
68889;BME280;55930;47.412;8.790;2023-09-12T17:42:54;94373.25;;;21.16;84.73
68889;BME280;55930;47.412;8.790;2023-09-12T17:46:14;94372.78;;;21.68;78.21
68889;BME280;55930;47.412;8.790;2023-09-12T17:49:35;94373.88;;;21.81;76.21
68889;BME280;55930;47.412;8.790;2023-09-12T17:52:55;94377.16;;;21.87;76.52
68889;BME280;55930;47.412;8.790;2023-09-12T17:56:19;94357.41;;;22.14;71.04
68889;BME280;55930;47.412;8.790;2023-09-12T17:59:39;94371.31;;;22.34;69.14